Time;durP1;ratioP1;P1;durP2;ratioP2;P2;SDS_P1;SDS_P2;PMS_P1;PMS_P2;Temp;Humidity;BMP_temperature;BMP_pressure;BME280_temperature;BME280_humidity;BME280_pressure;Samples;Min_cycle;Max_cycle;Signal;HPM_P1;HPM_P2
2021/10/27 00:03:44;;;;;;;;;;;13.80;99.90;;;;;;8356664;28;19920;-73
2021/10/27 00:07:45;;;;;;;;;;;13.80;99.90;;;;;;8329524;28;19928;-75
2021/10/27 00:11:47;;;;;;;;;;;13.90;99.90;;;;;;8366898;28;19944;-73
2021/10/27 00:15:49;;;;;;;;;;;13.90;99.90;;;;;;8339873;28;20392;-74
2021/10/27 00:19:51;;;;;;;;;;;13.90;99.90;;;;;;8339232;28;19931;-73
2021/10/27 00:23:53;;;;;;;;;;;13.90;99.90;;;;;;8347299;28;19921;-74
2021/10/27 00:27:54;;;;;;;;;;;13.90;99.90;;;;;;8333755;28;19921;-73
2021/10/27 00:31:56;;;;;;;;;;;13.90;99.90;;;;;;8345793;28;19931;-74
2021/10/27 00:35:58;;;;;;;;;;;14.00;99.90;;;;;;8344273;28;19976;-74
2021/10/27 00:40:00;;;;;;;;;;;14.00;99.90;;;;;;8363879;28;19921;-74
2021/10/27 00:44:01;;;;;;;;;;;14.00;99.90;;;;;;8329747;28;19936;-74
2021/10/27 00:48:03;;;;;;;;;;;14.00;99.90;;;;;;8335363;28;19929;-74
2021/10/27 00:52:07;;;;;;;;;;;14.00;99.90;;;;;;8331434;28;19925;-74
2021/10/27 00:56:10;;;;;;;;;;;14.10;99.90;;;;;;8349633;28;19921;-73
2021/10/27 01:00:12;;;;;;;;;;;14.10;99.90;;;;;;8334331;28;19921;-74
2021/10/27 01:04:14;;;;;;;;;;;14.10;99.90;;;;;;8344369;28;19996;-74
2021/10/27 01:08:16;;;;;;;;;;;14.10;99.90;;;;;;8352470;28;19921;-73
2021/10/27 01:12:18;;;;;;;;;;;14.10;99.90;;;;;;8331521;28;20381;-74
2021/10/27 01:16:20;;;;;;;;;;;14.10;99.90;;;;;;8331942;28;19967;-73
2021/10/27 01:20:21;;;;;;;;;;;14.10;99.90;;;;;;8333481;28;20591;-73
2021/10/27 01:24:23;;;;;;;;;;;14.00;99.90;;;;;;8338237;28;19920;-74
2021/10/27 01:28:25;;;;;;;;;;;14.00;99.90;;;;;;8326106;28;19929;-73
2021/10/27 01:32:31;;;;;;;;;;;14.00;99.90;;;;;;8351738;28;19921;-74
2021/10/27 01:36:32;;;;;;;;;;;14.00;99.90;;;;;;8334371;28;19928;-74
2021/10/27 01:40:34;;;;;;;;;;;14.00;99.90;;;;;;8334933;28;19936;-74
2021/10/27 01:44:35;;;;;;;;;;;14.00;99.90;;;;;;8337176;28;19921;-73
2021/10/27 01:48:37;;;;;;;;;;;14.00;99.90;;;;;;8372822;28;20269;-74
2021/10/27 01:52:39;;;;;;;;;;;14.00;99.90;;;;;;8345581;28;19956;-74
2021/10/27 01:56:41;;;;;;;;;;;14.10;99.90;;;;;;8337351;28;19928;-73
2021/10/27 02:00:43;;;;;;;;;;;14.00;99.90;;;;;;8350076;28;19929;-73
2021/10/27 02:04:45;;;;;;;;;;;14.10;99.90;;;;;;8336203;28;19929;-74
2021/10/27 02:08:46;;;;;;;;;;;14.10;99.90;;;;;;8331560;28;19940;-74
2021/10/27 02:12:48;;;;;;;;;;;14.10;99.90;;;;;;8332518;28;19925;-74
2021/10/27 02:16:50;;;;;;;;;;;14.10;99.90;;;;;;8345253;28;19921;-73
2021/10/27 02:20:52;;;;;;;;;;;14.10;99.90;;;;;;8333803;28;20435;-74
2021/10/27 02:24:54;;;;;;;;;;;14.10;99.90;;;;;;8331207;28;19928;-74
2021/10/27 02:28:55;;;;;;;;;;;14.10;99.90;;;;;;8328951;28;19944;-73
2021/10/27 02:32:57;;;;;;;;;;;14.10;99.90;;;;;;8333765;28;19932;-73
2021/10/27 02:36:59;;;;;;;;;;;14.20;99.90;;;;;;8335277;28;19970;-73
2021/10/27 02:41:01;;;;;;;;;;;14.20;99.90;;;;;;8335782;28;19921;-73
2021/10/27 02:45:03;;;;;;;;;;;14.20;99.90;;;;;;8338808;28;19979;-74
2021/10/27 02:49:04;;;;;;;;;;;14.20;99.90;;;;;;8329060;28;19928;-73
2021/10/27 02:53:06;;;;;;;;;;;14.30;99.90;;;;;;8366723;28;19925;-74
2021/10/27 02:57:08;;;;;;;;;;;14.30;99.90;;;;;;8344157;28;19921;-74
2021/10/27 03:01:10;;;;;;;;;;;14.30;99.90;;;;;;8345043;28;20260;-73
2021/10/27 03:05:12;;;;;;;;;;;14.30;99.90;;;;;;8332107;28;20265;-73
2021/10/27 03:09:13;;;;;;;;;;;14.30;99.90;;;;;;8335162;28;19921;-74
2021/10/27 03:13:15;;;;;;;;;;;14.20;99.90;;;;;;8332949;28;19929;-74
2021/10/27 03:17:18;;;;;;;;;;;14.30;99.90;;;;;;8330059;28;19935;-73
2021/10/27 03:21:19;;;;;;;;;;;14.20;99.90;;;;;;8327755;28;19932;-73
2021/10/27 03:25:21;;;;;;;;;;;14.20;99.90;;;;;;8339977;28;19921;-73
2021/10/27 03:29:23;;;;;;;;;;;14.20;99.90;;;;;;8350006;28;20551;-73
2021/10/27 03:33:25;;;;;;;;;;;14.20;99.90;;;;;;8333572;28;19936;-73
2021/10/27 03:37:26;;;;;;;;;;;14.20;99.90;;;;;;8361798;28;20377;-73
2021/10/27 03:41:28;;;;;;;;;;;14.20;99.90;;;;;;8336090;28;19924;-73
2021/10/27 03:45:29;;;;;;;;;;;14.20;99.90;;;;;;8328460;28;19924;-73
2021/10/27 03:49:31;;;;;;;;;;;14.20;99.90;;;;;;8328420;28;19921;-73
2021/10/27 03:53:33;;;;;;;;;;;14.20;99.90;;;;;;8333635;28;20364;-73
2021/10/27 03:57:34;;;;;;;;;;;14.10;99.90;;;;;;8322946;28;19921;-73
2021/10/27 04:01:36;;;;;;;;;;;14.10;99.90;;;;;;8321403;28;19921;-73
2021/10/27 04:05:38;;;;;;;;;;;14.10;99.90;;;;;;8346523;28;19925;-73
2021/10/27 04:09:40;;;;;;;;;;;14.10;99.90;;;;;;8316360;28;19929;-73
2021/10/27 04:13:41;;;;;;;;;;;14.10;99.90;;;;;;8324300;28;19929;-74
2021/10/27 04:17:43;;;;;;;;;;;14.10;99.90;;;;;;8290828;28;19944;-74
2021/10/27 04:21:45;;;;;;;;;;;14.10;99.90;;;;;;8314010;28;20015;-73
2021/10/27 04:25:46;;;;;;;;;;;14.20;99.90;;;;;;8316489;28;19928;-73
2021/10/27 04:29:48;;;;;;;;;;;14.20;99.90;;;;;;8314075;28;19920;-73
2021/10/27 04:33:50;;;;;;;;;;;14.20;99.90;;;;;;8325241;28;19966;-73
2021/10/27 04:37:52;;;;;;;;;;;14.20;99.90;;;;;;8326010;28;20328;-73
2021/10/27 04:41:53;;;;;;;;;;;14.10;99.90;;;;;;8325984;28;20020;-73
2021/10/27 04:46:17;;;;;;;;;;;14.10;99.90;;;;;;8355303;28;20391;-73
2021/10/27 04:50:19;;;;;;;;;;;14.20;99.90;;;;;;8329950;28;20308;-73
2021/10/27 04:54:20;;;;;;;;;;;14.10;99.90;;;;;;8311204;28;19935;-73
2021/10/27 04:58:22;;;;;;;;;;;14.10;99.90;;;;;;8332106;28;19932;-74
2021/10/27 05:02:24;;;;;;;;;;;14.10;99.90;;;;;;8338353;28;19975;-73
2021/10/27 05:06:29;;;;;;;;;;;14.10;99.90;;;;;;8322462;28;19933;-74
2021/10/27 05:10:30;;;;;;;;;;;14.10;99.90;;;;;;8334949;28;19924;-73
2021/10/27 05:14:33;;;;;;;;;;;14.10;99.90;;;;;;8320567;28;19920;-73
2021/10/27 05:18:34;;;;;;;;;;;14.10;99.90;;;;;;8333018;28;19928;-73
2021/10/27 05:22:36;;;;;;;;;;;14.10;99.90;;;;;;8315096;28;20407;-74
2021/10/27 05:26:38;;;;;;;;;;;14.10;99.90;;;;;;8332460;28;19929;-73
2021/10/27 05:30:39;;;;;;;;;;;14.10;99.90;;;;;;8321163;28;20377;-73
2021/10/27 05:34:43;;;;;;;;;;;14.20;99.90;;;;;;8332247;28;22263;-73
2021/10/27 05:38:45;;;;;;;;;;;14.20;99.90;;;;;;8327974;28;19929;-73
2021/10/27 05:42:47;;;;;;;;;;;14.20;99.90;;;;;;8331248;28;20295;-73
2021/10/27 05:46:51;;;;;;;;;;;14.20;99.90;;;;;;8320133;28;19932;-73
2021/10/27 05:55:23;;;;;;;;;;;14.20;99.90;;;;;;8305996;28;19925;-73
2021/10/27 05:59:24;;;;;;;;;;;14.20;99.90;;;;;;8322745;28;19925;-73
2021/10/27 06:03:26;;;;;;;;;;;14.20;99.90;;;;;;8318340;28;19925;-73
2021/10/27 06:07:28;;;;;;;;;;;14.20;99.90;;;;;;8331844;28;19951;-73
2021/10/27 06:11:31;;;;;;;;;;;14.20;99.90;;;;;;8322203;28;19924;-73
2021/10/27 06:15:34;;;;;;;;;;;14.20;99.90;;;;;;8330738;28;20381;-73
2021/10/27 06:19:35;;;;;;;;;;;14.20;99.90;;;;;;8313912;28;19932;-73
2021/10/27 06:23:38;;;;;;;;;;;14.20;99.90;;;;;;8318560;28;19932;-73
2021/10/27 06:27:43;;;;;;;;;;;14.20;99.90;;;;;;8341993;28;19926;-73
2021/10/27 06:31:53;;;;;;;;;;;14.20;99.90;;;;;;8333914;28;20288;-73
2021/10/27 06:35:59;;;;;;;;;;;14.10;99.90;;;;;;8333423;28;19925;-73
2021/10/27 06:48:34;;;;;;;;;;;14.10;99.90;;;;;;8342935;28;19959;-74
2021/10/27 06:52:43;;;;;;;;;;;14.10;99.90;;;;;;8339201;28;19939;-73
2021/10/27 06:56:45;;;;;;;;;;;14.00;99.90;;;;;;8331104;28;19940;-73
2021/10/27 07:00:49;;;;;;;;;;;14.00;99.90;;;;;;8387060;28;19925;-73
2021/10/27 07:05:12;;;;;;;;;;;14.00;99.90;;;;;;8333912;28;19929;-74
2021/10/27 07:17:55;;;;;;;;;;;14.00;99.90;;;;;;8321926;28;19925;-73
2021/10/27 07:21:56;;;;;;;;;;;14.00;99.90;;;;;;8331183;28;20261;-74
2021/10/27 07:25:59;;;;;;;;;;;13.90;99.90;;;;;;8328546;28;19926;-74
2021/10/27 07:30:01;;;;;;;;;;;13.90;99.90;;;;;;8347693;28;20001;-74
2021/10/27 07:34:09;;;;;;;;;;;13.90;99.90;;;;;;8346158;28;20418;-74
2021/10/27 07:42:32;;;;;;;;;;;13.90;99.90;;;;;;8337122;28;19933;-73
2021/10/27 07:46:34;;;;;;;;;;;13.90;99.90;;;;;;8337849;28;19932;-74
2021/10/27 07:50:37;;;;;;;;;;;13.90;99.90;;;;;;8333121;28;20587;-73
2021/10/27 07:54:39;;;;;;;;;;;13.90;99.90;;;;;;8332551;28;20246;-74
2021/10/27 07:58:41;;;;;;;;;;;14.00;99.90;;;;;;8316281;28;19936;-73
2021/10/27 08:02:46;;;;;;;;;;;14.00;99.90;;;;;;8321242;28;19975;-73
2021/10/27 08:07:07;;;;;;;;;;;14.00;99.90;;;;;;8329237;28;19925;-73
2021/10/27 08:11:10;;;;;;;;;;;14.00;99.90;;;;;;8365251;28;20020;-74
2021/10/27 08:15:12;;;;;;;;;;;14.00;99.90;;;;;;8347391;28;20054;-74
2021/10/27 08:19:14;;;;;;;;;;;14.00;99.90;;;;;;8321766;28;20035;-73
2021/10/27 08:23:18;;;;;;;;;;;13.90;99.90;;;;;;8310504;28;19932;-73
2021/10/27 08:27:22;;;;;;;;;;;13.90;99.90;;;;;;8339829;28;19932;-74
2021/10/27 08:35:30;;;;;;;;;;;13.90;99.90;;;;;;8329067;28;19929;-74
2021/10/27 08:39:32;;;;;;;;;;;14.00;99.90;;;;;;8344516;28;20277;-73
2021/10/27 08:43:33;;;;;;;;;;;14.10;99.90;;;;;;8340342;28;20381;-74
2021/10/27 08:48:06;;;;;;;;;;;14.20;99.90;;;;;;8342263;28;19925;-73
2021/10/27 08:52:12;;;;;;;;;;;14.30;99.90;;;;;;8332881;28;19933;-73
2021/10/27 08:56:13;;;;;;;;;;;14.30;99.90;;;;;;8337550;28;20408;-73
2021/10/27 09:00:28;;;;;;;;;;;14.40;99.90;;;;;;8329023;28;19943;-73
2021/10/27 09:04:46;;;;;;;;;;;14.50;99.90;;;;;;8342733;28;19926;-73
2021/10/27 09:34:58;;;;;;;;;;;15.40;99.90;;;;;;8332296;28;24089;-74
2021/10/27 09:43:15;;;;;;;;;;;;;;;;;;;;;
2021/10/27 10:04:28;;;;;;;;;;;15.70;99.90;;;;;;8316983;28;19925;-74
2021/10/27 10:08:32;;;;;;;;;;;15.90;99.90;;;;;;8340911;28;20330;-74
2021/10/27 10:12:44;;;;;;;;;;;16.40;99.90;;;;;;8323740;28;19928;-74
2021/10/27 10:16:52;;;;;;;;;;;16.50;99.90;;;;;;8334042;28;19925;-74
2021/10/27 10:20:54;;;;;;;;;;;16.30;99.90;;;;;;8327600;28;19975;-73
2021/10/27 10:25:16;;;;;;;;;;;16.20;99.90;;;;;;8321372;28;25120;-73
2021/10/27 10:30:10;;;;;;;;;;;16.00;99.90;;;;;;8328416;28;19929;-74
2021/10/27 10:34:09;;;;;;;;;;;15.80;99.90;;;;;;8343477;28;20335;-74
2021/10/27 10:57:34;;;;;;;;;;;15.60;99.90;;;;;;8321216;28;24086;-74
2021/10/27 11:01:24;;;;;;;;;;;15.60;99.90;;;;;;8335076;28;19990;-74
2021/10/27 11:23:27;;;;;;;;;;;15.60;99.90;;;;;;8325605;28;19931;-74
2021/10/27 11:40:59;;;;;;;;;;;15.60;99.90;;;;;;8319318;28;20435;-74
2021/10/27 11:45:12;;;;;;;;;;;15.60;99.90;;;;;;8325198;28;20230;-74
2021/10/27 11:49:15;;;;;;;;;;;15.70;99.90;;;;;;8330410;28;19931;-74
2021/10/27 11:53:17;;;;;;;;;;;15.80;99.90;;;;;;8345808;28;19920;-73
2021/10/27 11:57:19;;;;;;;;;;;15.80;99.90;;;;;;8344221;28;19921;-74
2021/10/27 12:01:33;;;;;;;;;;;16.00;99.90;;;;;;8351366;28;20269;-74
2021/10/27 12:14:17;;;;;;;;;;;16.40;99.90;;;;;;8339094;28;25084;-74
2021/10/27 12:18:19;;;;;;;;;;;16.40;99.90;;;;;;8329217;28;24074;-74
2021/10/27 12:22:22;;;;;;;;;;;16.50;99.90;;;;;;8323446;28;20293;-74
2021/10/27 12:26:25;;;;;;;;;;;16.50;99.90;;;;;;8331477;28;19920;-74
2021/10/27 12:30:34;;;;;;;;;;;16.40;99.90;;;;;;8333406;28;19920;-73
2021/10/27 12:34:55;;;;;;;;;;;16.30;99.90;;;;;;8326216;28;19929;-74
2021/10/27 12:43:30;;;;;;;;;;;16.20;99.90;;;;;;8326749;28;19944;-74
2021/10/27 12:47:33;;;;;;;;;;;16.30;99.90;;;;;;8356628;28;19928;-74
2021/10/27 12:51:35;;;;;;;;;;;16.50;99.90;;;;;;8341700;28;19966;-73
2021/10/27 12:55:44;;;;;;;;;;;16.50;99.90;;;;;;8336965;28;20372;-74
2021/10/27 12:59:46;;;;;;;;;;;16.60;99.90;;;;;;8354777;28;20369;-74
2021/10/27 13:04:05;;;;;;;;;;;16.60;99.90;;;;;;8349218;28;19927;-74
2021/10/27 13:08:23;;;;;;;;;;;16.60;99.90;;;;;;8337737;28;19928;-73
2021/10/27 13:21:18;;;;;;;;;;;16.20;99.90;;;;;;8317036;28;19925;-74
2021/10/27 13:33:42;;;;;;;;;;;16.00;99.90;;;;;;8345313;28;20035;-74
2021/10/27 13:37:45;;;;;;;;;;;16.10;99.90;;;;;;8346146;28;19931;-74
2021/10/27 13:41:54;;;;;;;;;;;16.20;99.90;;;;;;8343301;28;19920;-74
2021/10/27 13:46:14;;;;;;;;;;;16.10;99.90;;;;;;8337093;28;19925;-74
2021/10/27 13:59:13;;;;;;;;;;;16.10;99.90;;;;;;8346935;28;19963;-74
2021/10/27 14:07:41;;;;;;;;;;;16.00;99.90;;;;;;8317590;28;19921;-73
2021/10/27 14:11:58;;;;;;;;;;;16.00;99.90;;;;;;8332185;28;19964;-74
2021/10/27 14:51:17;;;;;;;;;;;16.50;99.90;;;;;;8318258;28;19987;-74
2021/10/27 15:21:45;;;;;;;;;;;15.80;99.90;;;;;;8303473;28;19984;-73
2021/10/27 15:30:23;;;;;;;;;;;15.60;99.90;;;;;;8304516;28;19925;-73
2021/10/27 15:34:58;;;;;;;;;;;15.50;99.90;;;;;;8304507;28;20024;-73
2021/10/27 15:52:07;;;;;;;;;;;15.70;99.90;;;;;;8301364;28;19948;-74
2021/10/27 15:56:08;;;;;;;;;;;15.80;99.90;;;;;;8304655;28;19925;-74
2021/10/27 16:00:10;;;;;;;;;;;15.70;99.90;;;;;;8297674;28;19921;-74
2021/10/27 16:04:12;;;;;;;;;;;15.40;99.90;;;;;;8286555;28;19921;-74
2021/10/27 16:08:15;;;;;;;;;;;15.20;99.90;;;;;;8289546;28;19929;-74
2021/10/27 16:12:17;;;;;;;;;;;14.90;99.90;;;;;;8295063;28;19924;-73
2021/10/27 16:16:19;;;;;;;;;;;14.70;99.90;;;;;;8291766;28;20037;-74
2021/10/27 16:20:21;;;;;;;;;;;14.60;99.90;;;;;;8293290;28;19932;-74
2021/10/27 16:24:25;;;;;;;;;;;14.40;99.90;;;;;;8293588;28;19972;-73
2021/10/27 16:28:26;;;;;;;;;;;14.40;99.90;;;;;;8294164;28;19922;-74
2021/10/27 16:32:28;;;;;;;;;;;14.30;99.90;;;;;;8310087;28;19921;-74
2021/10/27 16:36:30;;;;;;;;;;;14.20;99.90;;;;;;8296638;28;20281;-73
2021/10/27 16:40:32;;;;;;;;;;;14.20;99.90;;;;;;8294065;28;20017;-73
2021/10/27 16:44:34;;;;;;;;;;;14.20;99.90;;;;;;8308309;28;20514;-73
2021/10/27 16:48:57;;;;;;;;;;;14.20;99.90;;;;;;8304694;28;19932;-74
2021/10/27 16:52:59;;;;;;;;;;;14.20;99.90;;;;;;8314187;28;19925;-73
2021/10/27 16:57:01;;;;;;;;;;;14.20;99.90;;;;;;8295634;28;20561;-73
2021/10/27 17:01:03;;;;;;;;;;;14.20;99.90;;;;;;8298726;28;19936;-73
2021/10/27 17:05:05;;;;;;;;;;;14.10;99.90;;;;;;8294933;28;19922;-73
2021/10/27 17:09:07;;;;;;;;;;;14.00;99.90;;;;;;8294588;28;19943;-73
2021/10/27 17:13:09;;;;;;;;;;;14.00;99.90;;;;;;8329557;28;19929;-73
2021/10/27 17:17:10;;;;;;;;;;;13.90;99.90;;;;;;8294774;28;19921;-73
2021/10/27 17:21:12;;;;;;;;;;;13.80;99.90;;;;;;8308861;28;19929;-73
2021/10/27 17:25:16;;;;;;;;;;;13.70;99.90;;;;;;8311729;28;20863;-73
2021/10/27 17:29:17;;;;;;;;;;;13.70;99.90;;;;;;8299175;28;20031;-73
2021/10/27 17:33:20;;;;;;;8.60;5.70;;;13.60;99.90;;;;;;8311954;28;19921;-73
2021/10/27 17:37:21;;;;;;;;;;;13.50;99.90;;;;;;8299032;28;19925;-74
2021/10/27 17:41:26;;;;;;;;;;;13.50;99.90;;;;;;8299005;28;20393;-73
2021/10/27 17:45:42;;;;;;;9.25;5.53;;;13.40;99.90;;;;;;8312321;28;19922;-73
2021/10/27 18:02:47;;;;;;;10.05;5.13;;;13.10;99.90;;;;;;8310192;28;20095;-73
2021/10/27 18:06:49;;;;;;;;;;;13.00;99.90;;;;;;8309193;28;20566;-74
2021/10/27 18:10:54;;;;;;;;;;;12.90;99.90;;;;;;8297317;28;19948;-73
2021/10/27 18:14:58;;;;;;;;;;;12.80;99.90;;;;;;8297368;28;20304;-73
2021/10/27 18:19:19;;;;;;;;;;;12.80;99.90;;;;;;8300008;28;20284;-73
2021/10/27 18:23:38;;;;;;;;;;;12.80;99.90;;;;;;8327880;28;19921;-73
2021/10/27 18:44:43;;;;;;;;;;;12.50;99.90;;;;;;8297308;28;19929;-73
2021/10/27 18:48:46;;;;;;;;;;;12.50;99.90;;;;;;8293546;28;20008;-74
2021/10/27 18:52:56;;;;;;;;;;;12.60;99.90;;;;;;8293354;28;19921;-73
2021/10/27 19:01:29;;;;;;;;;;;12.60;99.90;;;;;;8293645;28;20325;-73
2021/10/27 19:14:18;;;;;;;;;;;12.50;99.90;;;;;;8297042;28;20325;-73
2021/10/27 19:18:20;;;;;;;;;;;12.40;99.90;;;;;;8307266;28;20036;-73
2021/10/27 19:22:22;;;;;;;;;;;12.40;99.90;;;;;;8307504;28;19932;-73
2021/10/27 19:27:01;;;;;;;;;;;12.40;99.90;;;;;;8297517;28;19929;-73
2021/10/27 19:31:19;;;;;;;;;;;12.30;99.90;;;;;;8287696;28;19929;-73
2021/10/27 20:04:43;;;;;;;;;;;12.30;99.90;;;;;;8298994;28;19925;-73
2021/10/27 20:49:19;;;;;;;;;;;11.90;99.90;;;;;;8308720;28;19929;-73
2021/10/27 20:53:22;;;;;;;;;;;11.80;99.90;;;;;;8300857;28;19973;-73
2021/10/27 21:01:42;;;;;;;;;;;11.70;99.90;;;;;;8305234;28;20327;-73
2021/10/27 21:14:25;;;;;;;;;;;11.70;99.90;;;;;;8332567;28;19925;-73
2021/10/27 21:18:26;;;;;;;;;;;11.70;99.90;;;;;;8336619;28;19944;-73
2021/10/27 21:22:28;;;;;;;;;;;11.70;99.90;;;;;;8328848;28;19928;-73
2021/10/27 21:26:30;;;;;;;;;;;11.70;99.90;;;;;;8367012;28;19927;-73
2021/10/27 21:31:01;;;;;;;;;;;11.70;99.90;;;;;;8341501;28;19920;-73
2021/10/27 21:42:27;;;;;;;;;;;11.80;99.90;;;;;;8325290;28;19925;-73
2021/10/27 21:43:47;;;;;;;;;;;11.90;99.90;;;;;;8334818;28;19974;-73
2021/10/27 21:47:50;;;;;;;;;;;11.90;99.90;;;;;;8320612;28;19921;-74
2021/10/27 21:51:56;;;;;;;;;;;11.90;99.90;;;;;;8333344;28;20380;-73
2021/10/27 21:56:00;;;;;;;;;;;11.90;99.90;;;;;;8334218;28;19920;-73
2021/10/27 22:00:04;;;;;;;;;;;11.90;99.90;;;;;;8343080;28;19927;-73
2021/10/27 22:04:06;;;;;;;;;;;11.90;99.90;;;;;;8337480;28;19929;-73
2021/10/27 22:08:08;;;;;;;;;;;11.90;99.90;;;;;;8342719;28;20592;-73
2021/10/27 22:12:10;;;;;;;;;;;11.80;99.90;;;;;;8331997;28;19925;-73
2021/10/27 22:16:13;;;;;;;;;;;11.80;99.90;;;;;;8338958;28;19921;-73
2021/10/27 22:20:15;;;;;;;;;;;11.80;99.90;;;;;;8331926;28;19921;-73
2021/10/27 22:24:18;;;;;;;;;;;11.80;99.90;;;;;;8337647;28;19925;-73
2021/10/27 22:28:20;;;;;;;;;;;11.80;99.90;;;;;;8338886;28;19921;-73
2021/10/27 22:32:22;;;;;;;;;;;11.80;99.90;;;;;;8335794;28;20386;-73
2021/10/27 22:36:23;;;;;;;;;;;11.70;99.90;;;;;;8335872;28;19933;-73
2021/10/27 22:40:25;;;;;;;;;;;11.70;99.90;;;;;;8356574;28;19921;-73
2021/10/27 22:44:27;;;;;;;;;;;11.70;99.90;;;;;;8329843;28;19988;-73
2021/10/27 22:48:28;;;;;;;;;;;11.70;99.90;;;;;;8343640;28;19966;-73
2021/10/27 22:52:30;;;;;;;;;;;11.70;99.90;;;;;;8335524;28;19928;-73
2021/10/27 22:56:44;;;;;;;;;;;11.70;99.90;;;;;;8336329;28;20392;-73
2021/10/27 23:00:55;;;;;;;;;;;11.60;99.90;;;;;;8332960;28;19952;-73
2021/10/27 23:43:36;;;;;;;;;;;11.50;99.90;;;;;;8341605;28;20296;-73
2021/10/27 23:47:44;;;;;;;;;;;11.40;99.90;;;;;;8333053;28;19921;-73
2021/10/27 23:51:53;;;;;;;;;;;11.40;99.90;;;;;;8350779;28;19925;-73
2021/10/27 23:56:02;;;;;;;;;;;11.30;99.90;;;;;;8347763;28;20368;-73
